createdAt,value
2023-01-30T00:00:42.642Z,-0.00
2023-01-30T00:04:22.325Z,-0.05
2023-01-30T00:07:24.732Z,-0.02
2023-01-30T00:10:27.119Z,-0.15
2023-01-30T00:13:29.418Z,0.14
2023-01-30T00:16:31.878Z,0.04
2023-01-30T00:19:34.236Z,0.08
2023-01-30T00:22:36.524Z,0.10
2023-01-30T00:25:38.917Z,0.13
2023-01-30T00:28:41.718Z,-0.00
2023-01-30T00:31:44.127Z,0.07
2023-01-30T00:34:46.406Z,-0.16
2023-01-30T00:37:49.950Z,-0.17
2023-01-30T00:40:52.677Z,-0.03
2023-01-30T00:44:13.872Z,-0.03
2023-01-30T00:47:16.339Z,-0.05
2023-01-30T00:50:18.809Z,-0.01
2023-01-30T00:53:21.159Z,-0.07
2023-01-30T00:56:24.152Z,-0.03
2023-01-30T01:04:43.653Z,-0.06
2023-01-30T01:07:46.700Z,-0.01
2023-01-30T01:10:49.118Z,-0.09
2023-01-30T01:14:03.138Z,-0.15
2023-01-30T01:17:05.513Z,-0.26
2023-01-30T01:20:09.436Z,-0.21
2023-01-30T01:23:11.609Z,-0.17
2023-01-30T01:26:13.904Z,-0.20
2023-01-30T01:29:17.211Z,-0.14
2023-01-30T01:32:21.253Z,-0.18
2023-01-30T01:35:23.743Z,-0.03
2023-01-30T01:38:26.013Z,-0.12
2023-01-30T01:41:28.280Z,0.02
2023-01-30T01:45:02.843Z,-0.04
2023-01-30T01:48:13.424Z,-0.10
2023-01-30T01:51:17.054Z,-0.25
2023-01-30T01:54:48.346Z,-0.11
2023-01-30T01:58:08.149Z,-0.05
2023-01-30T02:01:10.714Z,-0.16
2023-01-30T02:04:13.208Z,-0.42
2023-01-30T02:07:21.706Z,-0.02
2023-01-30T02:10:35.213Z,-0.03
2023-01-30T02:13:38.115Z,0.06
2023-01-30T02:16:40.809Z,-0.14
2023-01-30T02:19:49.044Z,-0.14
2023-01-30T02:23:05.767Z,0.05
2023-01-30T02:26:30.261Z,-0.01
2023-01-30T02:29:50.478Z,0.01
2023-01-30T02:33:05.234Z,0.06
2023-01-30T02:36:16.339Z,-0.07
2023-01-30T02:39:38.686Z,-0.17
2023-01-30T02:43:18.303Z,-0.04
2023-01-30T02:46:25.688Z,-0.04
2023-01-30T02:49:53.064Z,-0.06
2023-01-30T02:52:55.798Z,-0.05
2023-01-30T02:55:58.142Z,-0.04
2023-01-30T02:59:03.246Z,-0.16
2023-01-30T03:02:36.956Z,-0.12
2023-01-30T03:05:51.480Z,-0.19
2023-01-30T03:09:02.868Z,-0.18
2023-01-30T03:12:32.538Z,-0.08
2023-01-30T03:15:51.034Z,-0.22
2023-01-30T03:18:53.643Z,-0.03
2023-01-30T03:21:56.157Z,-0.00
2023-01-30T03:24:59.777Z,0.17
2023-01-30T03:28:03.320Z,-0.45
2023-01-30T03:31:06.333Z,-0.06
2023-01-30T03:34:08.659Z,-0.04
2023-01-30T03:37:10.967Z,-0.16
2023-01-30T03:40:14.660Z,-0.13
2023-01-30T03:43:17.048Z,-0.14
2023-01-30T03:46:19.476Z,-0.14
2023-01-30T03:49:22.274Z,-0.24
2023-01-30T03:52:24.744Z,-0.23
2023-01-30T03:55:27.597Z,-0.07
2023-01-30T03:58:30.164Z,-0.20
2023-01-30T04:01:41.676Z,-0.33
2023-01-30T04:04:43.979Z,-0.38
2023-01-30T04:07:47.264Z,-0.21
2023-01-30T04:10:49.652Z,-0.33
2023-01-30T04:13:51.953Z,-0.46
2023-01-30T04:16:54.348Z,-0.22
2023-01-30T04:20:12.268Z,-0.33
2023-01-30T04:23:20.332Z,-0.40
2023-01-30T04:26:22.686Z,-0.15
2023-01-30T04:29:25.376Z,-0.28
2023-01-30T04:32:29.808Z,-0.20
2023-01-30T04:35:32.606Z,-0.21
2023-01-30T04:38:35.740Z,-0.27
2023-01-30T04:41:39.369Z,-0.18
2023-01-30T04:44:41.653Z,-0.15
2023-01-30T04:47:51.982Z,-0.18
2023-01-30T04:50:56.231Z,-0.39
2023-01-30T04:53:59.193Z,-0.41
2023-01-30T04:57:01.661Z,-0.34
2023-01-30T05:00:05.005Z,-0.48
2023-01-30T05:03:10.020Z,-0.28
2023-01-30T05:06:12.291Z,-0.47
2023-01-30T05:09:14.582Z,-0.64
2023-01-30T05:12:16.887Z,-0.64
2023-01-30T05:15:19.546Z,-0.50
2023-01-30T05:18:22.019Z,-0.45
2023-01-30T05:21:27.965Z,-0.58
2023-01-30T05:24:30.264Z,-0.65
2023-01-30T05:27:32.575Z,-0.85
2023-01-30T05:30:35.015Z,-0.60
2023-01-30T05:33:38.911Z,-0.42
2023-01-30T05:36:41.068Z,-0.56
2023-01-30T05:39:43.452Z,-0.66
2023-01-30T05:42:45.800Z,-0.61
2023-01-30T05:45:53.805Z,-0.61
2023-01-30T05:48:56.140Z,-0.75
2023-01-30T05:51:58.615Z,-0.59
2023-01-30T05:55:00.947Z,-0.72
2023-01-30T05:58:03.270Z,-0.57
2023-01-30T06:01:11.521Z,-0.66
2023-01-30T06:04:13.848Z,-0.79
2023-01-30T06:07:16.127Z,-0.71
2023-01-30T06:10:18.553Z,-0.63
2023-01-30T06:13:21.027Z,-0.74
2023-01-30T06:16:23.497Z,-0.66
2023-01-30T06:19:25.824Z,-0.75
2023-01-30T06:22:28.130Z,-0.53
2023-01-30T06:25:30.473Z,-0.56
2023-01-30T06:28:32.790Z,-0.58
2023-01-30T06:31:35.153Z,-0.47
2023-01-30T06:34:37.527Z,-0.67
2023-01-30T06:37:40.281Z,-0.72
2023-01-30T06:40:45.748Z,-0.50
2023-01-30T06:43:48.279Z,-0.49
2023-01-30T06:46:50.624Z,-0.79
2023-01-30T06:49:52.992Z,-0.61
2023-01-30T06:52:56.003Z,-0.75
2023-01-30T06:55:59.234Z,-0.44
2023-01-30T06:59:01.669Z,-0.47
2023-01-30T07:02:04.441Z,-0.56
2023-01-30T07:05:08.360Z,-0.64
2023-01-30T07:08:11.488Z,-0.66
2023-01-30T07:11:14.080Z,-0.69
2023-01-30T07:14:16.476Z,-0.80
2023-01-30T07:17:18.939Z,-0.77
2023-01-30T07:20:21.355Z,-0.85
2023-01-30T07:23:23.818Z,-0.94
2023-01-30T07:26:26.157Z,-0.84
2023-01-30T07:29:28.667Z,-0.83
2023-01-30T07:32:31.187Z,-0.86
2023-01-30T07:35:35.572Z,-0.77
2023-01-30T07:38:37.962Z,-0.93
2023-01-30T07:41:40.264Z,-0.75
2023-01-30T07:44:46.021Z,-0.86
2023-01-30T07:47:48.322Z,-0.71
2023-01-30T07:50:50.697Z,-0.70
2023-01-30T07:53:53.116Z,-0.70
2023-01-30T07:56:55.456Z,-0.74
2023-01-30T07:59:57.754Z,-0.64
2023-01-30T08:03:00.198Z,-0.71
2023-01-30T08:06:02.546Z,-0.76
2023-01-30T08:09:05.056Z,-0.64
2023-01-30T08:12:07.467Z,-0.63
2023-01-30T08:15:10.764Z,-0.56
2023-01-30T08:18:13.137Z,-0.29
2023-01-30T08:21:15.545Z,-0.36
2023-01-30T08:24:18.443Z,-0.55
2023-01-30T08:27:20.838Z,-0.46
2023-01-30T08:30:23.499Z,-0.37
2023-01-30T08:33:26.135Z,-0.41
2023-01-30T08:36:28.459Z,-0.45
2023-01-30T08:39:30.827Z,-0.42
2023-01-30T08:42:33.110Z,-0.37
2023-01-30T08:45:35.584Z,-0.29
2023-01-30T08:48:49.559Z,-0.30
2023-01-30T08:51:52.447Z,-0.27
2023-01-30T08:54:54.706Z,-0.08
2023-01-30T08:57:57.344Z,-0.16
2023-01-30T09:00:59.768Z,-0.21
2023-01-30T09:04:02.185Z,-0.30
2023-01-30T09:07:04.760Z,-0.53
2023-01-30T09:10:07.324Z,-0.54
2023-01-30T09:13:10.550Z,-0.62
2023-01-30T09:16:13.361Z,-0.44
2023-01-30T09:19:15.755Z,-0.42
2023-01-30T09:22:18.147Z,-0.44
2023-01-30T09:25:20.545Z,-0.39
2023-01-30T09:28:23.065Z,-0.24
2023-01-30T09:31:25.488Z,-0.05
2023-01-30T09:34:29.057Z,-0.09
2023-01-30T09:37:31.498Z,-0.25
2023-01-30T09:40:33.900Z,-0.32
2023-01-30T09:43:45.468Z,-0.17
2023-01-30T09:47:12.002Z,-0.25
2023-01-30T09:50:24.709Z,-0.12
2023-01-30T09:53:54.854Z,-0.08
2023-01-30T09:57:21.391Z,-0.13
2023-01-30T10:00:35.911Z,-0.37
2023-01-30T10:03:53.775Z,-0.47
2023-01-30T10:07:11.063Z,-0.21
2023-01-30T10:10:16.391Z,0.21
2023-01-30T10:13:36.614Z,0.09
2023-01-30T10:16:51.315Z,0.17
2023-01-30T10:20:12.550Z,0.27
2023-01-30T10:23:23.719Z,0.46
2023-01-30T10:26:27.720Z,0.30
2023-01-30T10:29:31.505Z,0.36
2023-01-30T10:32:47.391Z,0.50
2023-01-30T10:36:20.466Z,0.44
2023-01-30T10:39:29.629Z,0.39
2023-01-30T10:42:46.920Z,0.56
2023-01-30T10:46:30.618Z,0.50
2023-01-30T10:49:53.175Z,0.52
2023-01-30T10:53:18.439Z,0.61
2023-01-30T10:56:35.246Z,0.60
2023-01-30T10:59:56.253Z,0.48
2023-01-30T11:03:20.051Z,0.54
2023-01-30T11:06:26.224Z,0.65
2023-01-30T11:09:49.517Z,0.73
2023-01-30T11:12:57.158Z,0.76
2023-01-30T11:16:05.008Z,0.79
2023-01-30T11:19:19.401Z,0.65
2023-01-30T11:22:28.499Z,0.82
2023-01-30T11:25:30.848Z,0.93
2023-01-30T11:28:42.139Z,0.97
2023-01-30T11:31:50.981Z,0.76
2023-01-30T11:35:08.557Z,1.06
2023-01-30T11:38:32.764Z,1.14
2023-01-30T11:41:35.089Z,1.09
2023-01-30T11:44:38.946Z,1.31
2023-01-30T11:47:54.240Z,1.34
2023-01-30T11:51:03.030Z,1.17
2023-01-30T11:54:14.238Z,1.52
2023-01-30T11:57:18.345Z,1.25
2023-01-30T12:00:26.022Z,1.39
2023-01-30T12:03:30.200Z,1.39
2023-01-30T12:06:36.296Z,1.22
2023-01-30T12:09:40.967Z,1.18
2023-01-30T12:12:50.008Z,1.27
2023-01-30T12:15:58.866Z,1.53
2023-01-30T12:19:26.046Z,1.67
2023-01-30T12:22:46.840Z,1.85
2023-01-30T12:26:04.179Z,1.70
2023-01-30T12:29:26.927Z,1.33
2023-01-30T12:32:32.291Z,1.43
2023-01-30T12:35:53.222Z,1.44
2023-01-30T12:39:15.556Z,1.91
2023-01-30T12:42:50.429Z,1.88
2023-01-30T12:46:12.248Z,1.78
2023-01-30T12:49:25.650Z,1.68
2023-01-30T12:52:43.261Z,1.63
2023-01-30T12:56:10.537Z,2.00
2023-01-30T12:59:34.715Z,2.13
2023-01-30T13:02:58.275Z,2.30
2023-01-30T13:06:22.910Z,2.21
2023-01-30T13:09:36.857Z,2.18
2023-01-30T13:13:10.474Z,1.88
2023-01-30T13:16:46.755Z,1.82
2023-01-30T13:20:06.415Z,1.78
2023-01-30T13:23:14.633Z,1.52
2023-01-30T13:26:19.690Z,1.86
2023-01-30T13:29:38.188Z,1.91
2023-01-30T13:32:47.467Z,2.16
2023-01-30T13:36:04.582Z,1.96
2023-01-30T13:39:11.370Z,2.23
2023-01-30T13:42:31.388Z,2.05
2023-01-30T13:45:36.082Z,2.02
2023-01-30T13:48:50.624Z,1.87
2023-01-30T13:52:03.050Z,1.81
2023-01-30T13:55:14.654Z,1.97
2023-01-30T13:58:25.207Z,1.51
2023-01-30T14:02:09.702Z,1.55
2023-01-30T14:05:12.625Z,1.84
2023-01-30T14:08:20.936Z,1.85
2023-01-30T14:11:35.790Z,1.98
2023-01-30T14:14:41.289Z,1.87
2023-01-30T14:18:18.747Z,1.61
2023-01-30T14:21:25.577Z,1.65
2023-01-30T14:24:28.658Z,1.98
2023-01-30T14:27:33.145Z,2.04
2023-01-30T14:30:50.635Z,2.07
2023-01-30T14:33:52.883Z,1.99
2023-01-30T14:36:55.328Z,1.78
2023-01-30T14:39:58.611Z,1.68
2023-01-30T14:43:13.115Z,1.87
2023-01-30T14:46:18.507Z,1.94
2023-01-30T14:49:29.470Z,1.81
2023-01-30T14:52:40.304Z,1.77
2023-01-30T14:55:42.993Z,1.55
2023-01-30T14:59:00.427Z,1.63
2023-01-30T15:02:15.159Z,1.61
2023-01-30T15:05:28.676Z,1.53
2023-01-30T15:08:31.309Z,1.49
2023-01-30T15:11:34.884Z,1.39
2023-01-30T15:15:12.954Z,1.43
2023-01-30T15:18:36.340Z,1.39
2023-01-30T15:21:54.110Z,1.39
2023-01-30T15:25:20.430Z,1.21
2023-01-30T15:28:47.409Z,1.39
2023-01-30T15:32:00.263Z,1.32
2023-01-30T15:35:24.631Z,1.35
2023-01-30T15:38:33.108Z,1.37
2023-01-30T15:41:42.941Z,1.30
2023-01-30T15:45:03.174Z,1.37
2023-01-30T15:48:38.836Z,1.43
2023-01-30T15:51:41.236Z,1.24
2023-01-30T15:54:50.120Z,1.28
2023-01-30T15:57:57.900Z,1.25
2023-01-30T16:01:02.077Z,1.17
2023-01-30T16:04:08.658Z,1.26
2023-01-30T16:07:24.248Z,1.29
2023-01-30T16:10:31.230Z,1.21
2023-01-30T16:13:35.107Z,1.18
2023-01-30T16:16:37.754Z,1.18
2023-01-30T16:19:40.271Z,1.14
2023-01-30T16:22:46.173Z,1.22
2023-01-30T16:25:48.747Z,1.18
2023-01-30T16:28:51.964Z,1.14
2023-01-30T16:31:55.641Z,1.21
2023-01-30T16:35:17.779Z,1.23
2023-01-30T16:38:32.199Z,1.30
2023-01-30T16:41:43.074Z,1.27
2023-01-30T16:44:45.365Z,1.35
2023-01-30T16:47:48.101Z,1.33
2023-01-30T16:50:59.695Z,1.28
2023-01-30T16:54:04.219Z,1.34
2023-01-30T16:57:07.046Z,1.36
2023-01-30T17:00:25.501Z,1.41
2023-01-30T17:03:34.235Z,1.35
2023-01-30T17:06:43.573Z,1.43
2023-01-30T17:09:47.378Z,1.47
2023-01-30T17:12:50.648Z,1.42
2023-01-30T17:15:53.210Z,1.41
2023-01-30T17:18:58.257Z,1.36
2023-01-30T17:22:19.406Z,1.44
2023-01-30T17:25:29.450Z,1.31
2023-01-30T17:28:31.780Z,1.35
2023-01-30T17:31:34.663Z,1.29
2023-01-30T17:34:41.287Z,1.07
2023-01-30T17:37:46.782Z,1.15
2023-01-30T17:40:50.832Z,1.11
2023-01-30T17:43:53.287Z,1.28
2023-01-30T17:46:55.614Z,1.21
2023-01-30T17:49:58.027Z,1.13
2023-01-30T17:53:00.326Z,1.23
2023-01-30T17:56:02.748Z,1.21
2023-01-30T17:59:06.779Z,1.16
2023-01-30T18:02:11.728Z,1.13
2023-01-30T18:05:14.653Z,1.43
2023-01-30T18:08:17.109Z,1.23
2023-01-30T18:11:20.692Z,0.88
2023-01-30T18:14:23.903Z,1.11
2023-01-30T18:17:28.628Z,1.04
2023-01-30T18:20:30.918Z,0.85
2023-01-30T18:23:33.285Z,0.74
2023-01-30T18:26:35.627Z,0.93
2023-01-30T18:29:38.004Z,0.75
2023-01-30T18:32:51.676Z,0.84
2023-01-30T18:35:55.124Z,1.02
2023-01-30T18:38:57.427Z,0.89
2023-01-30T18:42:00.281Z,0.79
2023-01-30T18:45:02.704Z,1.12
2023-01-30T18:48:05.455Z,0.93
2023-01-30T18:51:13.354Z,1.06
2023-01-30T18:54:15.861Z,1.13
2023-01-30T18:57:18.275Z,1.29
2023-01-30T19:00:21.645Z,0.92
2023-01-30T19:03:25.075Z,1.27
2023-01-30T19:06:28.134Z,1.10
2023-01-30T19:09:31.125Z,1.31
2023-01-30T19:12:52.420Z,1.38
2023-01-30T19:15:58.677Z,1.33
2023-01-30T19:19:01.407Z,1.32
2023-01-30T19:22:03.980Z,1.30
2023-01-30T19:25:06.943Z,1.31
2023-01-30T19:28:09.621Z,1.40
2023-01-30T19:31:14.198Z,1.42
2023-01-30T19:34:16.599Z,1.48
2023-01-30T19:37:18.948Z,1.36
2023-01-30T19:40:21.711Z,1.39
2023-01-30T19:43:24.345Z,1.43
2023-01-30T19:46:28.922Z,1.42
2023-01-30T19:49:31.905Z,1.24
2023-01-30T19:52:36.464Z,1.19
2023-01-30T19:55:38.767Z,1.05
2023-01-30T19:58:41.359Z,1.01
2023-01-30T20:01:43.840Z,1.10
2023-01-30T20:04:46.208Z,1.12
2023-01-30T20:07:49.888Z,0.82
2023-01-30T20:11:01.742Z,0.97
2023-01-30T20:14:07.046Z,1.31
2023-01-30T20:17:09.509Z,1.33
2023-01-30T20:20:12.391Z,1.31
2023-01-30T20:23:14.824Z,1.52
2023-01-30T20:26:20.677Z,1.48
2023-01-30T20:29:23.153Z,1.30
2023-01-30T20:32:25.499Z,1.34
2023-01-30T20:35:27.859Z,1.51
2023-01-30T20:38:31.747Z,1.64
2023-01-30T20:41:35.890Z,1.31
2023-01-30T20:44:38.435Z,1.16
2023-01-30T20:47:40.775Z,1.21
2023-01-30T20:50:43.100Z,1.44
2023-01-30T20:53:56.707Z,1.66
2023-01-30T20:56:59.119Z,1.43
2023-01-30T21:00:02.159Z,1.51
2023-01-30T21:03:04.591Z,0.93
2023-01-30T21:06:06.970Z,1.09
2023-01-30T21:09:14.018Z,1.42
2023-01-30T21:12:16.551Z,1.38
2023-01-30T21:15:19.231Z,1.37
2023-01-30T21:18:21.936Z,1.34
2023-01-30T21:21:30.733Z,1.18
2023-01-30T21:24:33.969Z,1.32
2023-01-30T21:27:38.705Z,1.28
2023-01-30T21:30:42.789Z,1.22
2023-01-30T21:33:45.655Z,1.36
2023-01-30T21:37:08.351Z,1.31
2023-01-30T21:40:30.469Z,1.06
2023-01-30T21:43:32.820Z,1.44
2023-01-30T21:46:41.099Z,1.14
2023-01-30T21:49:45.615Z,1.40
2023-01-30T21:52:48.229Z,1.33
2023-01-30T21:55:51.963Z,1.22
2023-01-30T21:58:56.619Z,1.57
2023-01-30T22:01:59.039Z,1.66
2023-01-30T22:05:01.430Z,1.58
2023-01-30T22:08:05.223Z,1.78
2023-01-30T22:11:12.275Z,1.64
2023-01-30T22:14:14.956Z,1.55
2023-01-30T22:17:17.310Z,1.80
2023-01-30T22:20:19.628Z,1.56
2023-01-30T22:23:21.983Z,1.76
2023-01-30T22:26:25.755Z,1.78
2023-01-30T22:29:29.251Z,1.74
2023-01-30T22:32:31.521Z,2.03
2023-01-30T22:35:33.904Z,2.05
2023-01-30T22:38:36.399Z,2.01
2023-01-30T22:41:38.771Z,1.82
2023-01-30T22:44:41.935Z,2.00
2023-01-30T22:47:44.416Z,2.01
2023-01-30T22:50:46.929Z,2.06
2023-01-30T22:53:54.181Z,1.80
2023-01-30T22:56:56.536Z,1.96
2023-01-30T22:59:58.963Z,1.81
2023-01-30T23:03:01.475Z,1.80
2023-01-30T23:06:06.457Z,1.84
2023-01-30T23:09:10.348Z,1.78
2023-01-30T23:12:31.476Z,1.66
2023-01-30T23:15:42.803Z,1.57
2023-01-30T23:18:58.593Z,1.32
2023-01-30T23:22:00.931Z,1.12
2023-01-30T23:25:03.677Z,1.37
2023-01-30T23:28:05.976Z,1.36
2023-01-30T23:31:10.976Z,1.31
2023-01-30T23:34:16.709Z,1.17
2023-01-30T23:37:39.111Z,1.23
2023-01-30T23:40:41.810Z,1.51
2023-01-30T23:43:45.635Z,1.31
2023-01-30T23:46:48.028Z,1.23
2023-01-30T23:49:50.365Z,1.38
2023-01-30T23:52:52.823Z,1.48
2023-01-30T23:55:55.232Z,1.42
2023-01-30T23:58:57.745Z,1.28
